sensor_id;sensor_type;location;lat;lon;timestamp;temperature;humidity
63648;DHT22;49792;48.744;9.176;2023-04-06T00:00:05;17.70;50.90
63648;DHT22;49792;48.744;9.176;2023-04-06T00:02:33;17.70;50.90
63648;DHT22;49792;48.744;9.176;2023-04-06T00:04:59;17.70;50.90
63648;DHT22;49792;48.744;9.176;2023-04-06T00:07:24;17.70;50.90
63648;DHT22;49792;48.744;9.176;2023-04-06T00:09:50;17.60;50.80
63648;DHT22;49792;48.744;9.176;2023-04-06T00:12:16;17.70;50.80
63648;DHT22;49792;48.744;9.176;2023-04-06T00:14:41;17.60;51.10
63648;DHT22;49792;48.744;9.176;2023-04-06T00:17:07;17.60;50.90
63648;DHT22;49792;48.744;9.176;2023-04-06T00:19:32;17.60;51.00
63648;DHT22;49792;48.744;9.176;2023-04-06T00:21:58;17.60;50.90
63648;DHT22;49792;48.744;9.176;2023-04-06T00:24:23;17.60;50.90
63648;DHT22;49792;48.744;9.176;2023-04-06T00:26:49;17.70;50.90
63648;DHT22;49792;48.744;9.176;2023-04-06T00:29:15;17.70;50.80
63648;DHT22;49792;48.744;9.176;2023-04-06T00:31:40;17.70;50.90
63648;DHT22;49792;48.744;9.176;2023-04-06T00:34:06;17.70;51.00
63648;DHT22;49792;48.744;9.176;2023-04-06T00:36:31;17.70;51.10
63648;DHT22;49792;48.744;9.176;2023-04-06T00:38:57;17.70;51.20
63648;DHT22;49792;48.744;9.176;2023-04-06T00:41:22;17.70;51.10
63648;DHT22;49792;48.744;9.176;2023-04-06T00:43:48;17.70;51.30
63648;DHT22;49792;48.744;9.176;2023-04-06T00:46:14;17.70;51.50
63648;DHT22;49792;48.744;9.176;2023-04-06T00:48:39;17.70;51.70
63648;DHT22;49792;48.744;9.176;2023-04-06T00:51:05;17.70;51.60
63648;DHT22;49792;48.744;9.176;2023-04-06T00:53:31;17.60;51.60
63648;DHT22;49792;48.744;9.176;2023-04-06T00:55:56;17.70;51.70
63648;DHT22;49792;48.744;9.176;2023-04-06T00:58:23;17.70;51.70
63648;DHT22;49792;48.744;9.176;2023-04-06T01:00:48;17.70;51.60
63648;DHT22;49792;48.744;9.176;2023-04-06T01:03:14;17.70;51.20
63648;DHT22;49792;48.744;9.176;2023-04-06T01:05:39;17.70;51.60
63648;DHT22;49792;48.744;9.176;2023-04-06T01:08:06;17.70;51.50
63648;DHT22;49792;48.744;9.176;2023-04-06T01:10:32;17.70;51.60
63648;DHT22;49792;48.744;9.176;2023-04-06T01:12:57;17.60;51.60
63648;DHT22;49792;48.744;9.176;2023-04-06T01:15:23;17.60;51.50
63648;DHT22;49792;48.744;9.176;2023-04-06T01:17:49;17.60;51.40
63648;DHT22;49792;48.744;9.176;2023-04-06T01:20:14;17.60;51.50
63648;DHT22;49792;48.744;9.176;2023-04-06T01:22:40;17.60;51.50
63648;DHT22;49792;48.744;9.176;2023-04-06T01:25:05;17.60;51.60
63648;DHT22;49792;48.744;9.176;2023-04-06T01:27:31;17.60;51.40
63648;DHT22;49792;48.744;9.176;2023-04-06T01:29:57;17.60;51.60
63648;DHT22;49792;48.744;9.176;2023-04-06T01:32:23;17.60;51.60
63648;DHT22;49792;48.744;9.176;2023-04-06T01:34:48;17.60;51.70
63648;DHT22;49792;48.744;9.176;2023-04-06T01:37:14;17.60;51.80
63648;DHT22;49792;48.744;9.176;2023-04-06T01:39:39;17.50;51.90
63648;DHT22;49792;48.744;9.176;2023-04-06T01:42:05;17.50;51.80
63648;DHT22;49792;48.744;9.176;2023-04-06T01:44:31;17.50;52.00
63648;DHT22;49792;48.744;9.176;2023-04-06T01:46:57;17.50;51.80
63648;DHT22;49792;48.744;9.176;2023-04-06T01:49:22;17.50;51.90
63648;DHT22;49792;48.744;9.176;2023-04-06T01:51:48;17.50;51.80
63648;DHT22;49792;48.744;9.176;2023-04-06T01:54:13;17.50;51.90
63648;DHT22;49792;48.744;9.176;2023-04-06T01:56:39;17.50;52.00
63648;DHT22;49792;48.744;9.176;2023-04-06T01:59:05;17.50;51.80
63648;DHT22;49792;48.744;9.176;2023-04-06T02:01:30;17.50;52.00
63648;DHT22;49792;48.744;9.176;2023-04-06T02:03:56;17.50;52.10
63648;DHT22;49792;48.744;9.176;2023-04-06T02:06:21;17.50;51.70
63648;DHT22;49792;48.744;9.176;2023-04-06T02:08:47;17.50;51.80
63648;DHT22;49792;48.744;9.176;2023-04-06T02:11:12;17.50;52.00
63648;DHT22;49792;48.744;9.176;2023-04-06T02:13:38;17.50;51.90
63648;DHT22;49792;48.744;9.176;2023-04-06T02:16:03;17.50;52.10
63648;DHT22;49792;48.744;9.176;2023-04-06T02:18:30;17.50;52.20
63648;DHT22;49792;48.744;9.176;2023-04-06T02:20:56;17.50;52.00
63648;DHT22;49792;48.744;9.176;2023-04-06T02:23:21;17.50;52.20
63648;DHT22;49792;48.744;9.176;2023-04-06T02:25:47;17.50;52.10
63648;DHT22;49792;48.744;9.176;2023-04-06T02:28:12;17.50;52.20
63648;DHT22;49792;48.744;9.176;2023-04-06T02:30:38;17.50;52.20
63648;DHT22;49792;48.744;9.176;2023-04-06T02:33:03;17.50;52.10
63648;DHT22;49792;48.744;9.176;2023-04-06T02:35:29;17.50;52.10
63648;DHT22;49792;48.744;9.176;2023-04-06T02:37:55;17.40;52.00
63648;DHT22;49792;48.744;9.176;2023-04-06T02:40:20;17.40;51.80
63648;DHT22;49792;48.744;9.176;2023-04-06T02:42:46;17.40;51.80
63648;DHT22;49792;48.744;9.176;2023-04-06T02:45:12;17.50;51.70
63648;DHT22;49792;48.744;9.176;2023-04-06T02:47:37;17.40;51.70
63648;DHT22;49792;48.744;9.176;2023-04-06T02:50:03;17.50;51.70
63648;DHT22;49792;48.744;9.176;2023-04-06T02:52:28;17.40;51.70
63648;DHT22;49792;48.744;9.176;2023-04-06T02:54:54;17.40;52.00
63648;DHT22;49792;48.744;9.176;2023-04-06T02:57:20;17.40;51.70
63648;DHT22;49792;48.744;9.176;2023-04-06T02:59:45;17.40;51.60
63648;DHT22;49792;48.744;9.176;2023-04-06T03:02:11;17.40;51.70
63648;DHT22;49792;48.744;9.176;2023-04-06T03:04:36;17.40;51.70
63648;DHT22;49792;48.744;9.176;2023-04-06T03:07:02;17.40;51.90
63648;DHT22;49792;48.744;9.176;2023-04-06T03:09:27;17.40;51.90
63648;DHT22;49792;48.744;9.176;2023-04-06T03:11:53;17.40;51.90
63648;DHT22;49792;48.744;9.176;2023-04-06T03:14:18;17.40;52.00
63648;DHT22;49792;48.744;9.176;2023-04-06T03:16:47;17.40;52.00
63648;DHT22;49792;48.744;9.176;2023-04-06T03:19:13;17.40;51.90
63648;DHT22;49792;48.744;9.176;2023-04-06T03:21:38;17.40;51.70
63648;DHT22;49792;48.744;9.176;2023-04-06T03:24:04;17.40;51.70
63648;DHT22;49792;48.744;9.176;2023-04-06T03:26:30;17.30;51.80
63648;DHT22;49792;48.744;9.176;2023-04-06T03:28:56;17.40;51.90
63648;DHT22;49792;48.744;9.176;2023-04-06T03:31:21;17.40;51.90
63648;DHT22;49792;48.744;9.176;2023-04-06T03:33:47;17.30;52.00
63648;DHT22;49792;48.744;9.176;2023-04-06T03:36:12;17.40;51.80
63648;DHT22;49792;48.744;9.176;2023-04-06T03:38:38;17.40;51.80
63648;DHT22;49792;48.744;9.176;2023-04-06T03:41:03;17.40;52.00
63648;DHT22;49792;48.744;9.176;2023-04-06T03:43:29;17.40;51.90
63648;DHT22;49792;48.744;9.176;2023-04-06T03:45:54;17.40;51.90
63648;DHT22;49792;48.744;9.176;2023-04-06T03:48:20;17.40;51.90
63648;DHT22;49792;48.744;9.176;2023-04-06T03:50:45;17.40;52.00
63648;DHT22;49792;48.744;9.176;2023-04-06T03:53:11;17.40;52.00
63648;DHT22;49792;48.744;9.176;2023-04-06T03:55:36;17.40;52.20
63648;DHT22;49792;48.744;9.176;2023-04-06T03:58:02;17.40;52.20
63648;DHT22;49792;48.744;9.176;2023-04-06T04:00:27;17.40;52.10
63648;DHT22;49792;48.744;9.176;2023-04-06T04:02:53;17.40;52.20
63648;DHT22;49792;48.744;9.176;2023-04-06T04:05:18;17.40;52.20
63648;DHT22;49792;48.744;9.176;2023-04-06T04:07:44;17.40;52.00
63648;DHT22;49792;48.744;9.176;2023-04-06T04:10:10;17.40;52.00
63648;DHT22;49792;48.744;9.176;2023-04-06T04:12:35;17.40;51.80
63648;DHT22;49792;48.744;9.176;2023-04-06T04:15:01;17.40;51.60
63648;DHT22;49792;48.744;9.176;2023-04-06T04:17:28;17.40;51.60
63648;DHT22;49792;48.744;9.176;2023-04-06T04:19:53;17.40;51.70
63648;DHT22;49792;48.744;9.176;2023-04-06T04:22:19;17.40;51.60
63648;DHT22;49792;48.744;9.176;2023-04-06T04:24:44;17.40;51.60
63648;DHT22;49792;48.744;9.176;2023-04-06T04:27:10;17.40;52.50
63648;DHT22;49792;48.744;9.176;2023-04-06T04:29:35;17.40;51.60
63648;DHT22;49792;48.744;9.176;2023-04-06T04:32:01;17.40;51.70
63648;DHT22;49792;48.744;9.176;2023-04-06T04:34:26;17.40;51.60
63648;DHT22;49792;48.744;9.176;2023-04-06T04:36:52;17.30;51.70
63648;DHT22;49792;48.744;9.176;2023-04-06T04:39:18;17.30;51.70
63648;DHT22;49792;48.744;9.176;2023-04-06T04:41:43;17.30;51.70
63648;DHT22;49792;48.744;9.176;2023-04-06T04:44:09;17.30;51.80
63648;DHT22;49792;48.744;9.176;2023-04-06T04:46:34;17.30;51.70
63648;DHT22;49792;48.744;9.176;2023-04-06T04:49:00;17.30;51.70
63648;DHT22;49792;48.744;9.176;2023-04-06T04:51:25;17.30;52.60
63648;DHT22;49792;48.744;9.176;2023-04-06T04:53:51;17.30;51.80
63648;DHT22;49792;48.744;9.176;2023-04-06T04:56:16;17.30;51.70
63648;DHT22;49792;48.744;9.176;2023-04-06T04:58:42;17.30;51.80
63648;DHT22;49792;48.744;9.176;2023-04-06T05:01:08;17.30;51.80
63648;DHT22;49792;48.744;9.176;2023-04-06T05:03:33;17.30;51.90
63648;DHT22;49792;48.744;9.176;2023-04-06T05:05:59;17.20;51.70
63648;DHT22;49792;48.744;9.176;2023-04-06T05:08:24;17.30;51.80
63648;DHT22;49792;48.744;9.176;2023-04-06T05:10:50;17.30;51.80
63648;DHT22;49792;48.744;9.176;2023-04-06T05:13:15;17.30;51.60
63648;DHT22;49792;48.744;9.176;2023-04-06T05:15:41;17.30;51.70
63648;DHT22;49792;48.744;9.176;2023-04-06T05:18:07;17.30;51.60
63648;DHT22;49792;48.744;9.176;2023-04-06T05:20:33;17.30;51.70
63648;DHT22;49792;48.744;9.176;2023-04-06T05:22:59;17.30;51.70
63648;DHT22;49792;48.744;9.176;2023-04-06T05:25:24;17.30;51.60
63648;DHT22;49792;48.744;9.176;2023-04-06T05:27:50;17.30;51.40
63648;DHT22;49792;48.744;9.176;2023-04-06T05:30:15;17.40;51.50
63648;DHT22;49792;48.744;9.176;2023-04-06T05:32:41;17.40;51.60
63648;DHT22;49792;48.744;9.176;2023-04-06T05:35:08;17.30;51.70
63648;DHT22;49792;48.744;9.176;2023-04-06T05:37:34;17.40;52.40
63648;DHT22;49792;48.744;9.176;2023-04-06T05:39:59;17.40;51.30
63648;DHT22;49792;48.744;9.176;2023-04-06T05:42:25;17.40;50.90
63648;DHT22;49792;48.744;9.176;2023-04-06T05:44:52;17.40;50.70
63648;DHT22;49792;48.744;9.176;2023-04-06T05:47:18;17.50;50.60
63648;DHT22;49792;48.744;9.176;2023-04-06T05:49:43;17.50;50.50
63648;DHT22;49792;48.744;9.176;2023-04-06T05:52:09;17.50;50.30
63648;DHT22;49792;48.744;9.176;2023-04-06T05:54:36;17.50;50.20
63648;DHT22;49792;48.744;9.176;2023-04-06T05:57:01;17.50;50.20
63648;DHT22;49792;48.744;9.176;2023-04-06T05:59:27;17.60;50.30
63648;DHT22;49792;48.744;9.176;2023-04-06T06:01:52;17.60;50.30
63648;DHT22;49792;48.744;9.176;2023-04-06T06:04:18;17.60;50.30
63648;DHT22;49792;48.744;9.176;2023-04-06T06:06:43;17.60;50.30
63648;DHT22;49792;48.744;9.176;2023-04-06T06:09:09;17.60;50.30
63648;DHT22;49792;48.744;9.176;2023-04-06T06:11:35;17.60;50.30
63648;DHT22;49792;48.744;9.176;2023-04-06T06:14:00;17.60;50.30
63648;DHT22;49792;48.744;9.176;2023-04-06T06:16:26;17.60;50.30
63648;DHT22;49792;48.744;9.176;2023-04-06T06:18:51;17.50;50.30
63648;DHT22;49792;48.744;9.176;2023-04-06T06:21:17;17.50;50.20
63648;DHT22;49792;48.744;9.176;2023-04-06T06:23:42;17.50;50.20
63648;DHT22;49792;48.744;9.176;2023-04-06T06:26:09;17.50;50.20
63648;DHT22;49792;48.744;9.176;2023-04-06T06:28:34;17.50;50.30
63648;DHT22;49792;48.744;9.176;2023-04-06T06:31:00;17.50;50.20
63648;DHT22;49792;48.744;9.176;2023-04-06T06:33:26;17.50;50.20
63648;DHT22;49792;48.744;9.176;2023-04-06T06:35:51;17.50;50.20
63648;DHT22;49792;48.744;9.176;2023-04-06T06:38:17;17.50;50.20
63648;DHT22;49792;48.744;9.176;2023-04-06T06:40:44;17.50;50.20
63648;DHT22;49792;48.744;9.176;2023-04-06T06:43:10;17.50;50.20
63648;DHT22;49792;48.744;9.176;2023-04-06T06:45:35;17.50;50.20
63648;DHT22;49792;48.744;9.176;2023-04-06T06:48:01;17.50;50.20
63648;DHT22;49792;48.744;9.176;2023-04-06T06:50:26;17.50;50.20
63648;DHT22;49792;48.744;9.176;2023-04-06T06:52:52;17.50;50.20
63648;DHT22;49792;48.744;9.176;2023-04-06T06:55:17;17.50;50.20
63648;DHT22;49792;48.744;9.176;2023-04-06T06:57:44;17.60;50.90
63648;DHT22;49792;48.744;9.176;2023-04-06T07:00:11;17.70;51.70
63648;DHT22;49792;48.744;9.176;2023-04-06T07:02:38;17.60;52.20
63648;DHT22;49792;48.744;9.176;2023-04-06T07:05:04;17.70;52.20
63648;DHT22;49792;48.744;9.176;2023-04-06T07:07:31;17.60;52.20
63648;DHT22;49792;48.744;9.176;2023-04-06T07:09:57;17.60;52.20
63648;DHT22;49792;48.744;9.176;2023-04-06T07:12:22;17.60;52.20
63648;DHT22;49792;48.744;9.176;2023-04-06T07:14:48;17.70;52.40
63648;DHT22;49792;48.744;9.176;2023-04-06T07:17:13;17.80;52.60
63648;DHT22;49792;48.744;9.176;2023-04-06T07:19:39;17.80;52.40
63648;DHT22;49792;48.744;9.176;2023-04-06T07:22:04;17.80;52.60
63648;DHT22;49792;48.744;9.176;2023-04-06T07:24:30;17.80;52.70
63648;DHT22;49792;48.744;9.176;2023-04-06T07:26:55;17.80;52.60
63648;DHT22;49792;48.744;9.176;2023-04-06T07:29:21;17.80;52.60
63648;DHT22;49792;48.744;9.176;2023-04-06T07:31:48;17.80;52.80
63648;DHT22;49792;48.744;9.176;2023-04-06T07:34:14;17.80;52.60
63648;DHT22;49792;48.744;9.176;2023-04-06T07:36:40;17.80;52.70
63648;DHT22;49792;48.744;9.176;2023-04-06T07:39:06;17.80;52.70
63648;DHT22;49792;48.744;9.176;2023-04-06T07:41:32;17.80;52.60
63648;DHT22;49792;48.744;9.176;2023-04-06T07:43:57;17.80;52.70
63648;DHT22;49792;48.744;9.176;2023-04-06T07:46:23;17.80;52.70
63648;DHT22;49792;48.744;9.176;2023-04-06T07:48:48;17.70;52.70
63648;DHT22;49792;48.744;9.176;2023-04-06T07:51:15;17.70;52.70
63648;DHT22;49792;48.744;9.176;2023-04-06T07:53:43;17.70;52.60
63648;DHT22;49792;48.744;9.176;2023-04-06T07:56:09;17.70;52.50
63648;DHT22;49792;48.744;9.176;2023-04-06T07:58:35;17.70;52.20
63648;DHT22;49792;48.744;9.176;2023-04-06T08:01:01;17.70;52.30
63648;DHT22;49792;48.744;9.176;2023-04-06T08:03:26;17.70;52.20
63648;DHT22;49792;48.744;9.176;2023-04-06T08:05:52;17.70;52.30
63648;DHT22;49792;48.744;9.176;2023-04-06T08:08:18;17.80;52.30
63648;DHT22;49792;48.744;9.176;2023-04-06T08:10:43;17.70;52.20
63648;DHT22;49792;48.744;9.176;2023-04-06T08:13:10;17.70;52.10
63648;DHT22;49792;48.744;9.176;2023-04-06T08:15:36;17.70;52.20
63648;DHT22;49792;48.744;9.176;2023-04-06T08:18:01;17.70;52.00
63648;DHT22;49792;48.744;9.176;2023-04-06T08:20:27;17.70;52.00
63648;DHT22;49792;48.744;9.176;2023-04-06T08:22:52;17.80;51.90
63648;DHT22;49792;48.744;9.176;2023-04-06T08:25:18;17.80;51.90
63648;DHT22;49792;48.744;9.176;2023-04-06T08:27:43;17.80;51.70
63648;DHT22;49792;48.744;9.176;2023-04-06T08:30:09;17.80;51.80
63648;DHT22;49792;48.744;9.176;2023-04-06T08:32:34;17.80;51.60
63648;DHT22;49792;48.744;9.176;2023-04-06T08:35:00;17.80;51.50
63648;DHT22;49792;48.744;9.176;2023-04-06T08:37:25;17.80;52.50
63648;DHT22;49792;48.744;9.176;2023-04-06T08:39:51;17.80;51.50
63648;DHT22;49792;48.744;9.176;2023-04-06T08:42:18;17.80;51.50
63648;DHT22;49792;48.744;9.176;2023-04-06T08:44:44;17.80;51.40
63648;DHT22;49792;48.744;9.176;2023-04-06T08:47:11;17.90;51.30
63648;DHT22;49792;48.744;9.176;2023-04-06T08:49:37;17.80;51.30
63648;DHT22;49792;48.744;9.176;2023-04-06T08:52:04;17.90;51.20
63648;DHT22;49792;48.744;9.176;2023-04-06T08:54:30;17.90;51.30
63648;DHT22;49792;48.744;9.176;2023-04-06T08:56:56;17.90;51.30
63648;DHT22;49792;48.744;9.176;2023-04-06T08:59:23;17.90;51.10
63648;DHT22;49792;48.744;9.176;2023-04-06T09:01:48;17.90;51.20
63648;DHT22;49792;48.744;9.176;2023-04-06T09:04:14;17.90;51.20
63648;DHT22;49792;48.744;9.176;2023-04-06T09:06:40;17.90;51.20
63648;DHT22;49792;48.744;9.176;2023-04-06T09:09:06;17.90;51.00
63648;DHT22;49792;48.744;9.176;2023-04-06T09:11:42;17.90;50.90
63648;DHT22;49792;48.744;9.176;2023-04-06T09:14:07;18.00;50.80
63648;DHT22;49792;48.744;9.176;2023-04-06T09:16:38;17.90;51.10
63648;DHT22;49792;48.744;9.176;2023-04-06T09:19:04;17.90;51.40
63648;DHT22;49792;48.744;9.176;2023-04-06T09:21:30;17.80;51.30
63648;DHT22;49792;48.744;9.176;2023-04-06T09:23:59;17.80;51.40
63648;DHT22;49792;48.744;9.176;2023-04-06T09:26:25;17.80;51.50
63648;DHT22;49792;48.744;9.176;2023-04-06T09:28:52;17.80;51.30
63648;DHT22;49792;48.744;9.176;2023-04-06T09:31:22;17.80;51.30
63648;DHT22;49792;48.744;9.176;2023-04-06T09:33:49;17.80;51.40
63648;DHT22;49792;48.744;9.176;2023-04-06T09:36:14;17.80;51.40
63648;DHT22;49792;48.744;9.176;2023-04-06T09:38:52;17.80;51.30
63648;DHT22;49792;48.744;9.176;2023-04-06T09:41:29;17.80;51.50
63648;DHT22;49792;48.744;9.176;2023-04-06T09:44:29;17.80;51.40
63648;DHT22;49792;48.744;9.176;2023-04-06T09:46:49;17.80;51.30
63648;DHT22;49792;48.744;9.176;2023-04-06T09:49:14;17.80;51.40
63648;DHT22;49792;48.744;9.176;2023-04-06T09:51:41;17.80;51.30
63648;DHT22;49792;48.744;9.176;2023-04-06T09:54:10;17.80;51.00
63648;DHT22;49792;48.744;9.176;2023-04-06T09:56:51;17.80;51.10
63648;DHT22;49792;48.744;9.176;2023-04-06T10:01:48;17.80;51.40
63648;DHT22;49792;48.744;9.176;2023-04-06T10:04:36;17.80;51.30
63648;DHT22;49792;48.744;9.176;2023-04-06T10:07:02;17.80;51.10
63648;DHT22;49792;48.744;9.176;2023-04-06T10:09:29;17.90;51.80
63648;DHT22;49792;48.744;9.176;2023-04-06T10:12:02;17.90;51.60
63648;DHT22;49792;48.744;9.176;2023-04-06T10:14:28;17.90;51.50
63648;DHT22;49792;48.744;9.176;2023-04-06T10:16:53;17.80;51.40
63648;DHT22;49792;48.744;9.176;2023-04-06T10:19:22;17.90;51.40
63648;DHT22;49792;48.744;9.176;2023-04-06T10:21:50;17.90;51.30
63648;DHT22;49792;48.744;9.176;2023-04-06T10:24:16;17.90;51.00
63648;DHT22;49792;48.744;9.176;2023-04-06T10:26:43;17.90;50.70
63648;DHT22;49792;48.744;9.176;2023-04-06T10:29:08;17.90;50.60
63648;DHT22;49792;48.744;9.176;2023-04-06T10:31:39;17.90;50.60
63648;DHT22;49792;48.744;9.176;2023-04-06T10:34:04;17.90;50.50
63648;DHT22;49792;48.744;9.176;2023-04-06T10:36:33;17.90;50.60
63648;DHT22;49792;48.744;9.176;2023-04-06T10:39:00;17.90;50.60
63648;DHT22;49792;48.744;9.176;2023-04-06T10:41:33;17.90;50.50
63648;DHT22;49792;48.744;9.176;2023-04-06T10:43:59;17.90;50.60
63648;DHT22;49792;48.744;9.176;2023-04-06T10:46:25;17.90;50.70
63648;DHT22;49792;48.744;9.176;2023-04-06T10:48:50;17.90;50.70
63648;DHT22;49792;48.744;9.176;2023-04-06T10:51:16;17.90;50.70
63648;DHT22;49792;48.744;9.176;2023-04-06T10:53:43;17.90;50.70
63648;DHT22;49792;48.744;9.176;2023-04-06T10:56:15;17.90;50.70
63648;DHT22;49792;48.744;9.176;2023-04-06T10:58:44;17.90;50.50
63648;DHT22;49792;48.744;9.176;2023-04-06T11:01:11;17.90;50.50
63648;DHT22;49792;48.744;9.176;2023-04-06T11:03:44;18.00;50.90
63648;DHT22;49792;48.744;9.176;2023-04-06T11:06:10;18.00;51.30
63648;DHT22;49792;48.744;9.176;2023-04-06T11:08:35;18.00;52.00
63648;DHT22;49792;48.744;9.176;2023-04-06T11:11:13;18.10;51.70
63648;DHT22;49792;48.744;9.176;2023-04-06T11:13:53;18.00;52.10
63648;DHT22;49792;48.744;9.176;2023-04-06T11:16:23;17.90;52.00
63648;DHT22;49792;48.744;9.176;2023-04-06T11:18:59;17.90;52.10
63648;DHT22;49792;48.744;9.176;2023-04-06T11:21:37;17.80;52.20
63648;DHT22;49792;48.744;9.176;2023-04-06T11:24:28;17.80;51.80
63648;DHT22;49792;48.744;9.176;2023-04-06T11:26:57;17.90;51.60
63648;DHT22;49792;48.744;9.176;2023-04-06T11:29:23;17.90;51.20
63648;DHT22;49792;48.744;9.176;2023-04-06T11:31:50;18.00;51.00
63648;DHT22;49792;48.744;9.176;2023-04-06T11:34:20;18.00;50.60
63648;DHT22;49792;48.744;9.176;2023-04-06T11:36:46;18.10;50.60
63648;DHT22;49792;48.744;9.176;2023-04-06T11:39:13;18.00;50.80
63648;DHT22;49792;48.744;9.176;2023-04-06T11:41:38;18.10;50.70
63648;DHT22;49792;48.744;9.176;2023-04-06T11:44:05;18.10;50.60
63648;DHT22;49792;48.744;9.176;2023-04-06T11:46:30;18.10;50.80
63648;DHT22;49792;48.744;9.176;2023-04-06T11:48:59;18.10;50.90
63648;DHT22;49792;48.744;9.176;2023-04-06T11:51:25;18.10;50.90
63648;DHT22;49792;48.744;9.176;2023-04-06T11:53:52;18.10;50.70
63648;DHT22;49792;48.744;9.176;2023-04-06T11:56:27;18.00;50.70
63648;DHT22;49792;48.744;9.176;2023-04-06T11:58:57;18.00;50.60
63648;DHT22;49792;48.744;9.176;2023-04-06T12:01:24;18.10;50.60
63648;DHT22;49792;48.744;9.176;2023-04-06T12:03:50;18.10;50.60
63648;DHT22;49792;48.744;9.176;2023-04-06T12:06:16;18.10;50.60
63648;DHT22;49792;48.744;9.176;2023-04-06T12:08:41;18.10;50.60
63648;DHT22;49792;48.744;9.176;2023-04-06T12:11:07;18.10;50.70
63648;DHT22;49792;48.744;9.176;2023-04-06T12:13:32;18.10;50.70
63648;DHT22;49792;48.744;9.176;2023-04-06T12:15:58;18.10;50.80
63648;DHT22;49792;48.744;9.176;2023-04-06T12:18:23;18.20;50.80
63648;DHT22;49792;48.744;9.176;2023-04-06T12:20:49;18.20;50.80
63648;DHT22;49792;48.744;9.176;2023-04-06T12:23:15;18.20;50.90
63648;DHT22;49792;48.744;9.176;2023-04-06T12:25:41;18.10;51.00
63648;DHT22;49792;48.744;9.176;2023-04-06T12:28:07;18.20;51.30
63648;DHT22;49792;48.744;9.176;2023-04-06T12:30:34;18.20;51.30
63648;DHT22;49792;48.744;9.176;2023-04-06T12:32:59;18.10;51.30
63648;DHT22;49792;48.744;9.176;2023-04-06T12:35:25;18.20;51.30
63648;DHT22;49792;48.744;9.176;2023-04-06T12:37:50;18.10;51.30
63648;DHT22;49792;48.744;9.176;2023-04-06T12:40:16;18.00;51.60
63648;DHT22;49792;48.744;9.176;2023-04-06T12:42:41;18.00;51.60
63648;DHT22;49792;48.744;9.176;2023-04-06T12:45:07;18.00;51.50
63648;DHT22;49792;48.744;9.176;2023-04-06T12:47:33;17.90;51.40
63648;DHT22;49792;48.744;9.176;2023-04-06T12:49:59;17.90;51.40
63648;DHT22;49792;48.744;9.176;2023-04-06T12:52:24;17.90;51.30
63648;DHT22;49792;48.744;9.176;2023-04-06T12:54:50;17.90;51.20
63648;DHT22;49792;48.744;9.176;2023-04-06T12:57:16;17.90;51.10
63648;DHT22;49792;48.744;9.176;2023-04-06T12:59:45;17.90;51.00
63648;DHT22;49792;48.744;9.176;2023-04-06T13:02:11;17.90;50.50
63648;DHT22;49792;48.744;9.176;2023-04-06T13:04:36;17.90;50.90
63648;DHT22;49792;48.744;9.176;2023-04-06T13:07:02;17.90;51.20
63648;DHT22;49792;48.744;9.176;2023-04-06T13:09:27;17.90;51.20
63648;DHT22;49792;48.744;9.176;2023-04-06T13:11:53;17.90;50.90
63648;DHT22;49792;48.744;9.176;2023-04-06T13:14:19;17.70;51.60
63648;DHT22;49792;48.744;9.176;2023-04-06T13:16:44;17.60;50.70
63648;DHT22;49792;48.744;9.176;2023-04-06T13:19:10;17.60;49.70
63648;DHT22;49792;48.744;9.176;2023-04-06T13:21:36;17.60;48.10
63648;DHT22;49792;48.744;9.176;2023-04-06T13:24:01;17.60;47.60
63648;DHT22;49792;48.744;9.176;2023-04-06T13:26:27;17.90;47.20
63648;DHT22;49792;48.744;9.176;2023-04-06T13:28:53;18.10;47.10
63648;DHT22;49792;48.744;9.176;2023-04-06T13:31:21;18.30;48.20
63648;DHT22;49792;48.744;9.176;2023-04-06T13:33:46;18.40;48.70
63648;DHT22;49792;48.744;9.176;2023-04-06T13:36:12;18.40;48.70
63648;DHT22;49792;48.744;9.176;2023-04-06T13:38:37;18.40;48.90
63648;DHT22;49792;48.744;9.176;2023-04-06T13:41:04;18.30;50.30
63648;DHT22;49792;48.744;9.176;2023-04-06T13:43:30;18.30;49.50
63648;DHT22;49792;48.744;9.176;2023-04-06T13:45:56;18.40;49.40
63648;DHT22;49792;48.744;9.176;2023-04-06T13:48:23;18.50;50.80
63648;DHT22;49792;48.744;9.176;2023-04-06T13:50:48;18.50;52.00
63648;DHT22;49792;48.744;9.176;2023-04-06T13:53:14;18.40;52.80
63648;DHT22;49792;48.744;9.176;2023-04-06T13:55:40;18.40;53.80
63648;DHT22;49792;48.744;9.176;2023-04-06T13:58:05;18.50;53.40
63648;DHT22;49792;48.744;9.176;2023-04-06T14:00:31;18.40;53.70
63648;DHT22;49792;48.744;9.176;2023-04-06T14:02:56;18.20;52.90
63648;DHT22;49792;48.744;9.176;2023-04-06T14:05:22;18.10;52.30
63648;DHT22;49792;48.744;9.176;2023-04-06T14:07:49;18.20;51.90
63648;DHT22;49792;48.744;9.176;2023-04-06T14:10:14;18.20;51.70
63648;DHT22;49792;48.744;9.176;2023-04-06T14:12:41;18.10;51.60
63648;DHT22;49792;48.744;9.176;2023-04-06T14:15:07;18.00;51.30
63648;DHT22;49792;48.744;9.176;2023-04-06T14:17:33;18.10;50.60
63648;DHT22;49792;48.744;9.176;2023-04-06T14:19:58;18.30;50.40
63648;DHT22;49792;48.744;9.176;2023-04-06T14:22:24;18.30;50.70
63648;DHT22;49792;48.744;9.176;2023-04-06T14:24:49;18.40;50.70
63648;DHT22;49792;48.744;9.176;2023-04-06T14:27:15;18.40;50.60
63648;DHT22;49792;48.744;9.176;2023-04-06T14:29:40;18.50;50.50
63648;DHT22;49792;48.744;9.176;2023-04-06T14:32:06;18.50;50.50
63648;DHT22;49792;48.744;9.176;2023-04-06T14:34:31;18.50;50.80
63648;DHT22;49792;48.744;9.176;2023-04-06T14:36:57;18.50;50.80
63648;DHT22;49792;48.744;9.176;2023-04-06T14:39:22;18.50;50.80
63648;DHT22;49792;48.744;9.176;2023-04-06T14:41:48;18.50;50.80
63648;DHT22;49792;48.744;9.176;2023-04-06T14:44:14;18.60;51.30
63648;DHT22;49792;48.744;9.176;2023-04-06T14:46:40;18.70;51.30
63648;DHT22;49792;48.744;9.176;2023-04-06T14:49:05;18.60;51.60
63648;DHT22;49792;48.744;9.176;2023-04-06T14:51:33;18.60;51.00
63648;DHT22;49792;48.744;9.176;2023-04-06T14:53:59;18.50;50.90
63648;DHT22;49792;48.744;9.176;2023-04-06T14:56:25;18.60;50.80
63648;DHT22;49792;48.744;9.176;2023-04-06T14:58:50;18.60;50.80
63648;DHT22;49792;48.744;9.176;2023-04-06T15:01:19;18.60;51.80
63648;DHT22;49792;48.744;9.176;2023-04-06T15:03:46;18.60;50.80
63648;DHT22;49792;48.744;9.176;2023-04-06T15:06:14;18.60;50.70
63648;DHT22;49792;48.744;9.176;2023-04-06T15:08:41;18.60;50.60
63648;DHT22;49792;48.744;9.176;2023-04-06T15:11:07;18.70;50.40
63648;DHT22;49792;48.744;9.176;2023-04-06T15:13:32;18.70;50.50
63648;DHT22;49792;48.744;9.176;2023-04-06T15:15:57;18.70;50.70
63648;DHT22;49792;48.744;9.176;2023-04-06T15:18:23;18.70;50.90
63648;DHT22;49792;48.744;9.176;2023-04-06T15:20:48;18.70;51.10
63648;DHT22;49792;48.744;9.176;2023-04-06T15:23:14;18.70;51.10
63648;DHT22;49792;48.744;9.176;2023-04-06T15:25:39;18.60;51.10